UCA4299 KIAH-KELP
Flight info
| Callsign | UCA4299 |
|---|---|
| Flight time | 1h 37m |
| Altitude | 32000 |
| Route | PITZZ5 CRGER DCT TXSAS BEAHR3 |
| Aircraft | E145/M-SDFGIRW/S |
Departure
| Time | 2026-04-22 01:01 |
|---|---|
| Airport | George Bush Intercontinental Airport (KIAH) |
Arrival
| Time | 2026-04-22 02:38 |
|---|---|
| Airport | El Paso International Airport (KELP) |
| Time | Latitude | Longitude | Altitude | Speed | Heading |
|---|---|---|---|---|---|
| 2026-04-22 00:31 | 29.98572 | -95.34383 | 98 ft | 0 kts | 290° |
| 2026-04-22 00:49 | 29.98567 | -95.34368 | 98 ft | 2 kts | 290° |
| 2026-04-22 00:49 | 29.98561 | -95.34353 | 98 ft | 2 kts | 311° |
| 2026-04-22 00:49 | 29.98549 | -95.34343 | 98 ft | 2 kts | 344° |
| 2026-04-22 00:50 | 29.98535 | -95.34341 | 98 ft | 2 kts | 3° |
| 2026-04-22 00:50 | 29.98520 | -95.34342 | 98 ft | 2 kts | 0° |
| 2026-04-22 00:50 | 29.98510 | -95.34342 | 98 ft | 2 kts | 0° |
| 2026-04-22 00:50 | 29.98490 | -95.34342 | 98 ft | 2 kts | 0° |
| 2026-04-22 00:51 | 29.98480 | -95.34342 | 98 ft | 2 kts | 0° |
| 2026-04-22 00:51 | 29.98459 | -95.34342 | 98 ft | 2 kts | 0° |
| 2026-04-22 00:51 | 29.98444 | -95.34342 | 98 ft | 2 kts | 0° |
| 2026-04-22 00:51 | 29.98428 | -95.34342 | 98 ft | 2 kts | 0° |
| 2026-04-22 00:52 | 29.98413 | -95.34342 | 98 ft | 2 kts | 0° |
| 2026-04-22 00:52 | 29.98398 | -95.34342 | 98 ft | 2 kts | 359° |
| 2026-04-22 00:52 | 29.98384 | -95.34338 | 98 ft | 2 kts | 318° |
| 2026-04-22 00:52 | 29.98376 | -95.34323 | 98 ft | 2 kts | 278° |
| 2026-04-22 00:53 | 29.98376 | -95.34313 | 98 ft | 0 kts | 268° |
| 2026-04-22 00:55 | 29.98376 | -95.34344 | 98 ft | 4 kts | 270° |
| 2026-04-22 00:56 | 29.98376 | -95.34390 | 98 ft | 6 kts | 269° |
| 2026-04-22 00:56 | 29.98356 | -95.34448 | 98 ft | 9 kts | 233° |
| 2026-04-22 00:56 | 29.98326 | -95.34522 | 97 ft | 11 kts | 265° |
| 2026-04-22 00:56 | 29.98325 | -95.34631 | 95 ft | 15 kts | 270° |
| 2026-04-22 00:57 | 29.98324 | -95.34769 | 95 ft | 18 kts | 269° |
| 2026-04-22 00:57 | 29.98325 | -95.34928 | 95 ft | 20 kts | 270° |
| 2026-04-22 00:57 | 29.98325 | -95.35088 | 95 ft | 17 kts | 270° |
| 2026-04-22 00:57 | 29.98354 | -95.35183 | 95 ft | 12 kts | 329° |
| 2026-04-22 00:58 | 29.98440 | -95.35238 | 95 ft | 15 kts | 332° |
| 2026-04-22 00:58 | 29.98541 | -95.35300 | 95 ft | 17 kts | 332° |
| 2026-04-22 00:58 | 29.98655 | -95.35371 | 95 ft | 19 kts | 332° |
| 2026-04-22 00:58 | 29.98784 | -95.35450 | 95 ft | 19 kts | 332° |
| 2026-04-22 00:59 | 29.98883 | -95.35515 | 95 ft | 10 kts | 309° |
| 2026-04-22 00:59 | 29.98866 | -95.35598 | 95 ft | 12 kts | 242° |
| 2026-04-22 00:59 | 29.98821 | -95.35693 | 95 ft | 14 kts | 241° |
| 2026-04-22 00:59 | 29.98785 | -95.35767 | 95 ft | 6 kts | 224° |
| 2026-04-22 01:00 | 29.98735 | -95.35757 | 95 ft | 8 kts | 151° |
| 2026-04-22 01:00 | 29.98656 | -95.35707 | 95 ft | 20 kts | 152° |
| 2026-04-22 01:00 | 29.98330 | -95.35508 | 95 ft | 85 kts | 152° |
| 2026-04-22 01:00 | 29.97634 | -95.35081 | 94 ft | 137 kts | 152° |
| 2026-04-22 01:01 | 29.96720 | -95.34540 | 340 ft | 152 kts | 152° |
| 2026-04-22 01:01 | 29.95765 | -95.33942 | 822 ft | 163 kts | 153° |
| 2026-04-22 01:01 | 29.94611 | -95.33727 | 1294 ft | 185 kts | 185° |
| 2026-04-22 01:01 | 29.93397 | -95.34362 | 2005 ft | 201 kts | 212° |
| 2026-04-22 01:02 | 29.92370 | -95.35569 | 2487 ft | 229 kts | 229° |
| 2026-04-22 01:02 | 29.91430 | -95.37224 | 2891 ft | 256 kts | 234° |
| 2026-04-22 01:02 | 29.90838 | -95.38376 | 3495 ft | 257 kts | 236° |
| 2026-04-22 01:02 | 29.89686 | -95.40688 | 4769 ft | 246 kts | 238° |
| 2026-04-22 01:03 | 29.88833 | -95.42417 | 4960 ft | 255 kts | 238° |
| 2026-04-22 01:03 | 29.88075 | -95.44282 | 4984 ft | 260 kts | 244° |
| 2026-04-22 01:03 | 29.87443 | -95.45461 | 5142 ft | 258 kts | 232° |
| 2026-04-22 01:03 | 29.86166 | -95.47767 | 5759 ft | 259 kts | 238° |
| 2026-04-22 01:04 | 29.85258 | -95.49553 | 6664 ft | 257 kts | 241° |
| 2026-04-22 01:04 | 29.84399 | -95.51318 | 7589 ft | 254 kts | 242° |
| 2026-04-22 01:04 | 29.83536 | -95.53095 | 8337 ft | 258 kts | 242° |
| 2026-04-22 01:04 | 29.82768 | -95.54951 | 9093 ft | 258 kts | 257° |
| 2026-04-22 01:05 | 29.82811 | -95.56995 | 9773 ft | 262 kts | 287° |
| 2026-04-22 01:05 | 29.83664 | -95.58836 | 10500 ft | 266 kts | 299° |
| 2026-04-22 01:05 | 29.84601 | -95.60699 | 11069 ft | 274 kts | 298° |
| 2026-04-22 01:05 | 29.85553 | -95.62614 | 11540 ft | 284 kts | 298° |
| 2026-04-22 01:06 | 29.86546 | -95.64620 | 12080 ft | 292 kts | 298° |
| 2026-04-22 01:06 | 29.87565 | -95.66682 | 12594 ft | 300 kts | 298° |
| 2026-04-22 01:06 | 29.88603 | -95.68782 | 13062 ft | 309 kts | 298° |
| 2026-04-22 01:06 | 29.89679 | -95.70960 | 13538 ft | 317 kts | 298° |
| 2026-04-22 01:07 | 29.90783 | -95.73196 | 13962 ft | 326 kts | 298° |
| 2026-04-22 01:07 | 29.91921 | -95.75503 | 14387 ft | 334 kts | 298° |
| 2026-04-22 01:07 | 29.93066 | -95.77825 | 14963 ft | 336 kts | 298° |
| 2026-04-22 01:07 | 29.94218 | -95.80164 | 15510 ft | 339 kts | 298° |
| 2026-04-22 01:08 | 29.95398 | -95.82559 | 16037 ft | 343 kts | 298° |
| 2026-04-22 01:08 | 29.96568 | -95.84937 | 16544 ft | 346 kts | 298° |
| 2026-04-22 01:08 | 29.97758 | -95.87357 | 17057 ft | 349 kts | 298° |
| 2026-04-22 01:08 | 29.98964 | -95.89809 | 17557 ft | 352 kts | 298° |
| 2026-04-22 01:09 | 30.00165 | -95.92252 | 18066 ft | 354 kts | 298° |
| 2026-04-22 01:09 | 30.01378 | -95.94719 | 18746 ft | 351 kts | 298° |
| 2026-04-22 01:09 | 30.02560 | -95.97128 | 19387 ft | 349 kts | 298° |
| 2026-04-22 01:09 | 30.03756 | -95.99566 | 20023 ft | 346 kts | 298° |
| 2026-04-22 01:10 | 30.04937 | -96.01977 | 20628 ft | 345 kts | 298° |
| 2026-04-22 01:10 | 30.06097 | -96.04346 | 21218 ft | 343 kts | 298° |
| 2026-04-22 01:10 | 30.07106 | -96.06832 | 21768 ft | 340 kts | 284° |
| 2026-04-22 01:10 | 30.07548 | -96.09469 | 22311 ft | 339 kts | 280° |
| 2026-04-22 01:11 | 30.07968 | -96.12149 | 22874 ft | 338 kts | 280° |
| 2026-04-22 01:11 | 30.08382 | -96.14811 | 23430 ft | 336 kts | 280° |
| 2026-04-22 01:11 | 30.08785 | -96.17413 | 24023 ft | 333 kts | 280° |
| 2026-04-22 01:11 | 30.09190 | -96.20030 | 24640 ft | 329 kts | 280° |
| 2026-04-22 01:12 | 30.09590 | -96.22620 | 25216 ft | 327 kts | 280° |
| 2026-04-22 01:12 | 30.09982 | -96.25166 | 25794 ft | 324 kts | 280° |
| 2026-04-22 01:12 | 30.10375 | -96.27718 | 26349 ft | 322 kts | 279° |
| 2026-04-22 01:12 | 30.10764 | -96.30248 | 26925 ft | 319 kts | 279° |
| 2026-04-22 01:13 | 30.11149 | -96.32751 | 27484 ft | 316 kts | 279° |
| 2026-04-22 01:13 | 30.11525 | -96.35204 | 28020 ft | 314 kts | 279° |
| 2026-04-22 01:13 | 30.11902 | -96.37663 | 28557 ft | 311 kts | 279° |
| 2026-04-22 01:13 | 30.12274 | -96.40097 | 29060 ft | 309 kts | 279° |
| 2026-04-22 01:14 | 30.12647 | -96.42537 | 29565 ft | 307 kts | 279° |
| 2026-04-22 01:14 | 30.13014 | -96.44944 | 30049 ft | 305 kts | 279° |
| 2026-04-22 01:14 | 30.13255 | -96.46529 | 30328 ft | 305 kts | 279° |
| 2026-04-22 01:14 | 30.13745 | -96.49741 | 30933 ft | 303 kts | 278° |
| 2026-04-22 01:15 | 30.14106 | -96.52120 | 31407 ft | 301 kts | 279° |
| 2026-04-22 01:15 | 30.14463 | -96.54470 | 31858 ft | 299 kts | 278° |
| 2026-04-22 01:15 | 30.14823 | -96.56844 | 32119 ft | 302 kts | 278° |
| 2026-04-22 01:15 | 30.15182 | -96.59221 | 32130 ft | 306 kts | 278° |
| 2026-04-22 01:16 | 30.15922 | -96.64113 | 32128 ft | 312 kts | 279° |
| 2026-04-22 01:16 | 30.16675 | -96.69111 | 32144 ft | 319 kts | 278° |
| 2026-04-22 01:17 | 30.17437 | -96.74174 | 32148 ft | 325 kts | 278° |
| 2026-04-22 01:17 | 30.18211 | -96.79340 | 32153 ft | 331 kts | 278° |
| 2026-04-22 01:18 | 30.19000 | -96.84615 | 32155 ft | 336 kts | 278° |
| 2026-04-22 01:18 | 30.19794 | -96.89941 | 32158 ft | 340 kts | 278° |
| 2026-04-22 01:19 | 30.20601 | -96.95369 | 32161 ft | 344 kts | 278° |
| 2026-04-22 01:19 | 30.21412 | -97.00842 | 32160 ft | 348 kts | 278° |
| 2026-04-22 01:20 | 30.22227 | -97.06354 | 32155 ft | 351 kts | 278° |
| 2026-04-22 01:20 | 30.23060 | -97.11942 | 32157 ft | 354 kts | 278° |
| 2026-04-22 01:21 | 30.23894 | -97.17533 | 32147 ft | 357 kts | 278° |
| 2026-04-22 01:21 | 30.24741 | -97.23231 | 32140 ft | 360 kts | 278° |
| 2026-04-22 01:22 | 30.25586 | -97.28932 | 32136 ft | 362 kts | 278° |
| 2026-04-22 01:22 | 30.26430 | -97.34643 | 32136 ft | 363 kts | 278° |
| 2026-04-22 01:23 | 30.27275 | -97.40382 | 32135 ft | 365 kts | 278° |
| 2026-04-22 01:23 | 30.28128 | -97.46189 | 32135 ft | 366 kts | 278° |
| 2026-04-22 01:24 | 30.28976 | -97.51987 | 32135 ft | 367 kts | 278° |
| 2026-04-22 01:24 | 30.29819 | -97.57767 | 32134 ft | 368 kts | 278° |
| 2026-04-22 01:25 | 30.30671 | -97.63619 | 32134 ft | 369 kts | 278° |
| 2026-04-22 01:25 | 30.31520 | -97.69482 | 32148 ft | 373 kts | 278° |
| 2026-04-22 01:26 | 30.32525 | -97.75365 | 32151 ft | 378 kts | 283° |
| 2026-04-22 01:26 | 30.33595 | -97.80280 | 32151 ft | 381 kts | 282° |
| 2026-04-22 01:27 | 30.34864 | -97.86251 | 32148 ft | 384 kts | 282° |
| 2026-04-22 01:27 | 30.36348 | -97.93281 | 32152 ft | 388 kts | 282° |
| 2026-04-22 01:28 | 30.37628 | -97.99358 | 32153 ft | 391 kts | 282° |
| 2026-04-22 01:28 | 30.38912 | -98.05467 | 32150 ft | 393 kts | 282° |
| 2026-04-22 01:29 | 30.40200 | -98.11617 | 32144 ft | 395 kts | 282° |
| 2026-04-22 01:29 | 30.41491 | -98.17793 | 32143 ft | 397 kts | 282° |
| 2026-04-22 01:30 | 30.42784 | -98.23991 | 32143 ft | 398 kts | 282° |
| 2026-04-22 01:30 | 30.44084 | -98.30241 | 32141 ft | 400 kts | 282° |
| 2026-04-22 01:31 | 30.45344 | -98.36478 | 32143 ft | 400 kts | 281° |
| 2026-04-22 01:31 | 30.46531 | -98.42771 | 32140 ft | 401 kts | 281° |
| 2026-04-22 01:32 | 30.47723 | -98.49086 | 32132 ft | 403 kts | 281° |
| 2026-04-22 01:32 | 30.48910 | -98.55392 | 32125 ft | 403 kts | 281° |
| 2026-04-22 01:33 | 30.50102 | -98.61742 | 32118 ft | 404 kts | 281° |
| 2026-04-22 01:33 | 30.51291 | -98.68095 | 32129 ft | 405 kts | 281° |
| 2026-04-22 01:34 | 30.52485 | -98.74490 | 32127 ft | 406 kts | 281° |
| 2026-04-22 01:34 | 30.53672 | -98.80866 | 32126 ft | 407 kts | 281° |
| 2026-04-22 01:35 | 30.54859 | -98.87260 | 32128 ft | 408 kts | 281° |
| 2026-04-22 01:35 | 30.56048 | -98.93687 | 32125 ft | 409 kts | 281° |
| 2026-04-22 01:36 | 30.57241 | -99.00150 | 32122 ft | 410 kts | 281° |
| 2026-04-22 01:36 | 30.58421 | -99.06563 | 32123 ft | 410 kts | 281° |
| 2026-04-22 01:37 | 30.59612 | -99.13053 | 32121 ft | 411 kts | 281° |
| 2026-04-22 01:37 | 30.60797 | -99.19534 | 32121 ft | 411 kts | 281° |
| 2026-04-22 01:38 | 30.61972 | -99.25974 | 32112 ft | 412 kts | 281° |
| 2026-04-22 01:38 | 30.63150 | -99.32453 | 32113 ft | 412 kts | 281° |
| 2026-04-22 01:39 | 30.64329 | -99.38954 | 32117 ft | 412 kts | 281° |
| 2026-04-22 01:39 | 30.65502 | -99.45445 | 32112 ft | 412 kts | 281° |
| 2026-04-22 01:40 | 30.66676 | -99.51957 | 32108 ft | 412 kts | 281° |
| 2026-04-22 01:40 | 30.67843 | -99.58451 | 32113 ft | 412 kts | 281° |
| 2026-04-22 01:41 | 30.69009 | -99.64964 | 32111 ft | 412 kts | 281° |
| 2026-04-22 01:41 | 30.70165 | -99.71435 | 32125 ft | 413 kts | 281° |
| 2026-04-22 01:42 | 30.71327 | -99.77962 | 32129 ft | 413 kts | 281° |
| 2026-04-22 01:42 | 30.72484 | -99.84476 | 32123 ft | 414 kts | 281° |
| 2026-04-22 01:43 | 30.73639 | -99.91004 | 32120 ft | 415 kts | 281° |
| 2026-04-22 01:43 | 30.74797 | -99.97569 | 32126 ft | 415 kts | 281° |
| 2026-04-22 01:44 | 30.75949 | -100.04120 | 32126 ft | 415 kts | 281° |
| 2026-04-22 01:44 | 30.77098 | -100.10672 | 32123 ft | 415 kts | 281° |
| 2026-04-22 01:45 | 30.78245 | -100.17236 | 32119 ft | 416 kts | 281° |
| 2026-04-22 01:45 | 30.79394 | -100.23824 | 32116 ft | 416 kts | 281° |
| 2026-04-22 01:46 | 30.80531 | -100.30370 | 32118 ft | 416 kts | 281° |
| 2026-04-22 01:46 | 30.81668 | -100.36939 | 32111 ft | 415 kts | 281° |
| 2026-04-22 01:47 | 30.82803 | -100.43517 | 32109 ft | 414 kts | 281° |
| 2026-04-22 01:47 | 30.83932 | -100.50076 | 32108 ft | 414 kts | 281° |
| 2026-04-22 01:48 | 30.85052 | -100.56604 | 32107 ft | 413 kts | 281° |
| 2026-04-22 01:48 | 30.86173 | -100.63158 | 32108 ft | 413 kts | 281° |
| 2026-04-22 01:49 | 30.87283 | -100.69675 | 32117 ft | 413 kts | 281° |
| 2026-04-22 01:49 | 30.88394 | -100.76211 | 32112 ft | 413 kts | 281° |
| 2026-04-22 01:50 | 30.89507 | -100.82788 | 32111 ft | 413 kts | 281° |
| 2026-04-22 01:50 | 30.90611 | -100.89325 | 32109 ft | 413 kts | 280° |
| 2026-04-22 01:51 | 30.91714 | -100.95880 | 32107 ft | 413 kts | 281° |
| 2026-04-22 01:51 | 30.92810 | -101.02413 | 32106 ft | 414 kts | 281° |
| 2026-04-22 01:52 | 30.93910 | -101.08991 | 32104 ft | 414 kts | 280° |
| 2026-04-22 01:52 | 30.95000 | -101.15534 | 32105 ft | 414 kts | 280° |
| 2026-04-22 01:53 | 30.96092 | -101.22107 | 32106 ft | 414 kts | 280° |
| 2026-04-22 01:53 | 30.97175 | -101.28651 | 32100 ft | 414 kts | 280° |
| 2026-04-22 01:54 | 30.98261 | -101.35230 | 32098 ft | 414 kts | 281° |
| 2026-04-22 01:54 | 30.99340 | -101.41792 | 32097 ft | 414 kts | 280° |
| 2026-04-22 01:55 | 31.00421 | -101.48388 | 32094 ft | 414 kts | 281° |
| 2026-04-22 01:55 | 31.01492 | -101.54942 | 32091 ft | 414 kts | 280° |
| 2026-04-22 01:56 | 31.02559 | -101.61493 | 32091 ft | 414 kts | 281° |
| 2026-04-22 01:56 | 31.03629 | -101.68084 | 32094 ft | 414 kts | 280° |
| 2026-04-22 01:57 | 31.04696 | -101.74680 | 32094 ft | 415 kts | 280° |
| 2026-04-22 01:57 | 31.05754 | -101.81246 | 32091 ft | 415 kts | 280° |
| 2026-04-22 01:58 | 31.06819 | -101.87876 | 32082 ft | 416 kts | 280° |
| 2026-04-22 01:58 | 31.07877 | -101.94477 | 32078 ft | 417 kts | 280° |
| 2026-04-22 01:59 | 31.08930 | -102.01081 | 32080 ft | 417 kts | 279° |
| 2026-04-22 01:59 | 31.09983 | -102.07701 | 32078 ft | 417 kts | 279° |
| 2026-04-22 02:00 | 31.11035 | -102.14338 | 32073 ft | 417 kts | 279° |
| 2026-04-22 02:00 | 31.12086 | -102.20994 | 32073 ft | 418 kts | 280° |
| 2026-04-22 02:01 | 31.13135 | -102.27660 | 32072 ft | 418 kts | 279° |
| 2026-04-22 02:01 | 31.14178 | -102.34310 | 32072 ft | 418 kts | 279° |
| 2026-04-22 02:02 | 31.15216 | -102.40952 | 32066 ft | 419 kts | 279° |
| 2026-04-22 02:02 | 31.16259 | -102.47645 | 32062 ft | 419 kts | 279° |
| 2026-04-22 02:03 | 31.17293 | -102.54310 | 32059 ft | 419 kts | 279° |
| 2026-04-22 02:03 | 31.18325 | -102.60984 | 32058 ft | 420 kts | 279° |
| 2026-04-22 02:04 | 31.19872 | -102.71034 | 32049 ft | 421 kts | 279° |
| 2026-04-22 02:05 | 31.20901 | -102.77747 | 32048 ft | 421 kts | 279° |
| 2026-04-22 02:05 | 31.21930 | -102.84484 | 32047 ft | 422 kts | 279° |
| 2026-04-22 02:06 | 31.22952 | -102.91205 | 32047 ft | 423 kts | 279° |
| 2026-04-22 02:06 | 31.23971 | -102.97926 | 32051 ft | 424 kts | 279° |
| 2026-04-22 02:07 | 31.24996 | -103.04708 | 32058 ft | 424 kts | 279° |
| 2026-04-22 02:07 | 31.26014 | -103.11474 | 32066 ft | 425 kts | 279° |
| 2026-04-22 02:08 | 31.27034 | -103.18278 | 32064 ft | 424 kts | 279° |
| 2026-04-22 02:08 | 31.28039 | -103.25002 | 32068 ft | 423 kts | 279° |
| 2026-04-22 02:09 | 31.29042 | -103.31748 | 32064 ft | 422 kts | 279° |
| 2026-04-22 02:09 | 31.30044 | -103.38503 | 32057 ft | 421 kts | 279° |
| 2026-04-22 02:10 | 31.31036 | -103.45222 | 32053 ft | 421 kts | 279° |
| 2026-04-22 02:10 | 31.32023 | -103.51928 | 32045 ft | 420 kts | 279° |
| 2026-04-22 02:11 | 31.33005 | -103.58624 | 32049 ft | 419 kts | 279° |
| 2026-04-22 02:11 | 31.33983 | -103.65319 | 32060 ft | 419 kts | 279° |
| 2026-04-22 02:12 | 31.34962 | -103.72047 | 32071 ft | 418 kts | 279° |
| 2026-04-22 02:12 | 31.35925 | -103.78693 | 32082 ft | 418 kts | 279° |
| 2026-04-22 02:13 | 31.36892 | -103.85387 | 32089 ft | 418 kts | 279° |
| 2026-04-22 02:13 | 31.37856 | -103.92091 | 32089 ft | 418 kts | 279° |
| 2026-04-22 02:14 | 31.38813 | -103.98761 | 32089 ft | 418 kts | 279° |
| 2026-04-22 02:14 | 31.39772 | -104.05478 | 32092 ft | 418 kts | 279° |
| 2026-04-22 02:15 | 31.40718 | -104.12135 | 32105 ft | 418 kts | 279° |
| 2026-04-22 02:15 | 31.41664 | -104.18811 | 32114 ft | 417 kts | 279° |
| 2026-04-22 02:16 | 31.42608 | -104.25495 | 32114 ft | 417 kts | 279° |
| 2026-04-22 02:16 | 31.43552 | -104.32210 | 32125 ft | 417 kts | 279° |
| 2026-04-22 02:17 | 31.44483 | -104.38863 | 32145 ft | 416 kts | 279° |
| 2026-04-22 02:17 | 31.45351 | -104.45518 | 32159 ft | 416 kts | 277° |
| 2026-04-22 02:18 | 31.46066 | -104.52235 | 32164 ft | 415 kts | 277° |
| 2026-04-22 02:18 | 31.46771 | -104.58939 | 32158 ft | 415 kts | 277° |
| 2026-04-22 02:19 | 31.47468 | -104.65614 | 32150 ft | 416 kts | 277° |
| 2026-04-22 02:19 | 31.48161 | -104.72275 | 32138 ft | 408 kts | 277° |
| 2026-04-22 02:19 | 31.48500 | -104.75549 | 31939 ft | 403 kts | 277° |
| 2026-04-22 02:20 | 31.48836 | -104.78803 | 31528 ft | 404 kts | 277° |
| 2026-04-22 02:20 | 31.49173 | -104.82071 | 31044 ft | 406 kts | 277° |
| 2026-04-22 02:20 | 31.49510 | -104.85355 | 30572 ft | 405 kts | 277° |
| 2026-04-22 02:20 | 31.49847 | -104.88635 | 29991 ft | 407 kts | 277° |
| 2026-04-22 02:21 | 31.50183 | -104.91922 | 29371 ft | 410 kts | 277° |
| 2026-04-22 02:21 | 31.50523 | -104.95255 | 28662 ft | 414 kts | 277° |
| 2026-04-22 02:21 | 31.50864 | -104.98605 | 28032 ft | 415 kts | 277° |
| 2026-04-22 02:21 | 31.51204 | -105.01955 | 27414 ft | 416 kts | 277° |
| 2026-04-22 02:22 | 31.51542 | -105.05296 | 26737 ft | 418 kts | 277° |
| 2026-04-22 02:22 | 31.51769 | -105.07548 | 26249 ft | 420 kts | 277° |
| 2026-04-22 02:22 | 31.52228 | -105.12099 | 25294 ft | 423 kts | 277° |
| 2026-04-22 02:22 | 31.52570 | -105.15517 | 24573 ft | 424 kts | 277° |
| 2026-04-22 02:23 | 31.52906 | -105.18866 | 24349 ft | 413 kts | 277° |
| 2026-04-22 02:23 | 31.53233 | -105.22150 | 24036 ft | 403 kts | 277° |
| 2026-04-22 02:23 | 31.53552 | -105.25346 | 23844 ft | 385 kts | 277° |
| 2026-04-22 02:23 | 31.53855 | -105.28398 | 23536 ft | 373 kts | 277° |
| 2026-04-22 02:24 | 31.54156 | -105.31432 | 22731 ft | 376 kts | 277° |
| 2026-04-22 02:24 | 31.54451 | -105.34418 | 22107 ft | 373 kts | 277° |
| 2026-04-22 02:24 | 31.54746 | -105.37414 | 21573 ft | 365 kts | 277° |
| 2026-04-22 02:24 | 31.55035 | -105.40347 | 20772 ft | 363 kts | 277° |
| 2026-04-22 02:25 | 31.55321 | -105.43259 | 19895 ft | 363 kts | 277° |
| 2026-04-22 02:25 | 31.55605 | -105.46162 | 19192 ft | 360 kts | 277° |
| 2026-04-22 02:25 | 31.55886 | -105.49034 | 18630 ft | 354 kts | 277° |
| 2026-04-22 02:25 | 31.56164 | -105.51891 | 17933 ft | 353 kts | 277° |
| 2026-04-22 02:26 | 31.56441 | -105.54744 | 17294 ft | 349 kts | 276° |
| 2026-04-22 02:26 | 31.56714 | -105.57550 | 16685 ft | 346 kts | 276° |
| 2026-04-22 02:26 | 31.56980 | -105.60303 | 16069 ft | 343 kts | 276° |
| 2026-04-22 02:26 | 31.57248 | -105.63077 | 15425 ft | 341 kts | 276° |
| 2026-04-22 02:27 | 31.57512 | -105.65824 | 14877 ft | 337 kts | 276° |
| 2026-04-22 02:27 | 31.57770 | -105.68510 | 14295 ft | 333 kts | 276° |
| 2026-04-22 02:27 | 31.58029 | -105.71203 | 13696 ft | 331 kts | 276° |
| 2026-04-22 02:27 | 31.58282 | -105.73849 | 13134 ft | 328 kts | 276° |
| 2026-04-22 02:28 | 31.58534 | -105.76489 | 12506 ft | 326 kts | 276° |
| 2026-04-22 02:28 | 31.58808 | -105.79095 | 12181 ft | 314 kts | 282° |
| 2026-04-22 02:28 | 31.59623 | -105.81352 | 12167 ft | 295 kts | 299° |
| 2026-04-22 02:28 | 31.60634 | -105.83398 | 11941 ft | 287 kts | 299° |
| 2026-04-22 02:29 | 31.61641 | -105.85432 | 11409 ft | 291 kts | 299° |
| 2026-04-22 02:29 | 31.62660 | -105.87482 | 10946 ft | 291 kts | 300° |
| 2026-04-22 02:29 | 31.63653 | -105.89471 | 10818 ft | 278 kts | 300° |
| 2026-04-22 02:29 | 31.64605 | -105.91376 | 10798 ft | 263 kts | 300° |
| 2026-04-22 02:30 | 31.65508 | -105.93182 | 10777 ft | 250 kts | 300° |
| 2026-04-22 02:30 | 31.66369 | -105.94905 | 10705 ft | 241 kts | 300° |
| 2026-04-22 02:30 | 31.67213 | -105.96587 | 10484 ft | 239 kts | 300° |
| 2026-04-22 02:30 | 31.68054 | -105.98265 | 10181 ft | 239 kts | 300° |
| 2026-04-22 02:31 | 31.68887 | -105.99926 | 9878 ft | 239 kts | 300° |
| 2026-04-22 02:31 | 31.69753 | -106.01599 | 9592 ft | 238 kts | 305° |
| 2026-04-22 02:31 | 31.70673 | -106.03199 | 9365 ft | 235 kts | 300° |
| 2026-04-22 02:31 | 31.71491 | -106.04839 | 9070 ft | 236 kts | 299° |
| 2026-04-22 02:32 | 31.72304 | -106.06513 | 8741 ft | 232 kts | 298° |
| 2026-04-22 02:32 | 31.73066 | -106.08154 | 8422 ft | 226 kts | 297° |
| 2026-04-22 02:32 | 31.73774 | -106.09791 | 8077 ft | 223 kts | 295° |
| 2026-04-22 02:32 | 31.74446 | -106.11409 | 7709 ft | 221 kts | 295° |
| 2026-04-22 02:33 | 31.75089 | -106.13014 | 7417 ft | 216 kts | 294° |
| 2026-04-22 02:33 | 31.75713 | -106.14599 | 7167 ft | 210 kts | 294° |
| 2026-04-22 02:33 | 31.76304 | -106.16123 | 6916 ft | 203 kts | 294° |
| 2026-04-22 02:33 | 31.76887 | -106.17600 | 6694 ft | 193 kts | 294° |
| 2026-04-22 02:34 | 31.77435 | -106.19003 | 6424 ft | 188 kts | 294° |
| 2026-04-22 02:34 | 31.77963 | -106.20378 | 6233 ft | 180 kts | 293° |
| 2026-04-22 02:34 | 31.78427 | -106.21706 | 6006 ft | 175 kts | 290° |
| 2026-04-22 02:34 | 31.78813 | -106.23032 | 5778 ft | 168 kts | 287° |
| 2026-04-22 02:35 | 31.79114 | -106.24298 | 5524 ft | 152 kts | 284° |
| 2026-04-22 02:35 | 31.79342 | -106.25427 | 5330 ft | 135 kts | 282° |
| 2026-04-22 02:35 | 31.79511 | -106.26511 | 5111 ft | 139 kts | 279° |
| 2026-04-22 02:35 | 31.79645 | -106.27634 | 5037 ft | 141 kts | 277° |
| 2026-04-22 02:36 | 31.79734 | -106.28801 | 4964 ft | 143 kts | 273° |
| 2026-04-22 02:36 | 31.79784 | -106.29973 | 4866 ft | 144 kts | 272° |
| 2026-04-22 02:36 | 31.79828 | -106.31150 | 4749 ft | 142 kts | 273° |
| 2026-04-22 02:36 | 31.79888 | -106.32308 | 4593 ft | 144 kts | 274° |
| 2026-04-22 02:37 | 31.79949 | -106.33498 | 4427 ft | 146 kts | 274° |
| 2026-04-22 02:37 | 31.79987 | -106.34272 | 4293 ft | 143 kts | 273° |
| 2026-04-22 02:37 | 31.80057 | -106.35836 | 4028 ft | 145 kts | 273° |
| 2026-04-22 02:37 | 31.80110 | -106.36983 | 3953 ft | 129 kts | 274° |
| 2026-04-22 02:38 | 31.80155 | -106.37904 | 3938 ft | 95 kts | 273° |
| 2026-04-22 02:38 | 31.80180 | -106.38431 | 3933 ft | 30 kts | 274° |
| 2026-04-22 02:38 | 31.80190 | -106.38650 | 3931 ft | 27 kts | 273° |
| 2026-04-22 02:38 | 31.80182 | -106.38776 | 3928 ft | 11 kts | 219° |
| 2026-04-22 02:39 | 31.80099 | -106.38789 | 3928 ft | 12 kts | 183° |
| 2026-04-22 02:39 | 31.80024 | -106.38824 | 3927 ft | 11 kts | 223° |
| 2026-04-22 02:39 | 31.79989 | -106.38909 | 3926 ft | 10 kts | 269° |
| 2026-04-22 02:39 | 31.79989 | -106.38997 | 3924 ft | 9 kts | 270° |
| 2026-04-22 02:40 | 31.79989 | -106.39062 | 3924 ft | 8 kts | 262° |
| 2026-04-22 02:40 | 31.79973 | -106.39138 | 3924 ft | 10 kts | 256° |
| 2026-04-22 02:40 | 31.79955 | -106.39224 | 3924 ft | 11 kts | 255° |
| 2026-04-22 02:40 | 31.79935 | -106.39293 | 3924 ft | 7 kts | 256° |
| 2026-04-22 02:41 | 31.79937 | -106.39338 | 3923 ft | 5 kts | 307° |
| 2026-04-22 02:41 | 31.79967 | -106.39359 | 3923 ft | 2 kts | 337° |
| 2026-04-22 02:41 | 31.79976 | -106.39363 | 3923 ft | 0 kts | 338° |
| 2026-04-22 02:41 | 31.79978 | -106.39364 | 3923 ft | 0 kts | 338° |